createdAt,value
2018-12-16T00:01:31.603Z,7.83
2018-12-16T00:03:59.436Z,14.53
2018-12-16T00:06:27.964Z,10.28
2018-12-16T00:08:55.867Z,11.25
2018-12-16T00:11:23.686Z,15.40
2018-12-16T00:13:51.740Z,12.10
2018-12-16T00:16:19.854Z,7.97
2018-12-16T00:18:47.969Z,14.40
2018-12-16T00:21:15.829Z,8.10
2018-12-16T00:23:43.740Z,11.08
2018-12-16T00:26:12.173Z,13.10
2018-12-16T00:28:39.859Z,6.67
2018-12-16T00:31:08.602Z,13.83
2018-12-16T00:33:36.643Z,11.53
2018-12-16T00:36:04.525Z,9.90
2018-12-16T00:38:33.082Z,8.83
2018-12-16T00:41:01.144Z,10.05
2018-12-16T00:43:29.554Z,8.03
2018-12-16T00:45:57.684Z,14.33
2018-12-16T00:48:25.350Z,12.18
2018-12-16T00:50:53.578Z,10.50
2018-12-16T00:53:22.018Z,11.33
2018-12-16T00:55:49.627Z,14.38
2018-12-16T00:58:18.075Z,13.30
2018-12-16T01:00:46.004Z,13.50
2018-12-16T01:03:13.979Z,15.05
2018-12-16T01:05:42.258Z,12.23
2018-12-16T01:08:10.209Z,10.53
2018-12-16T01:10:38.506Z,13.93
2018-12-16T01:13:06.306Z,15.38
2018-12-16T01:15:34.825Z,14.70
2018-12-16T01:18:02.612Z,5.42
2018-12-16T01:20:30.290Z,12.35
2018-12-16T01:22:57.899Z,7.25
2018-12-16T01:25:25.727Z,10.72
2018-12-16T01:27:53.641Z,12.55
2018-12-16T01:30:21.483Z,13.90
2018-12-16T01:32:49.323Z,9.20
2018-12-16T01:35:16.971Z,8.45
2018-12-16T01:37:44.559Z,14.80
2018-12-16T01:40:12.556Z,14.93
2018-12-16T01:42:40.385Z,17.27
2018-12-16T01:45:08.834Z,15.93
2018-12-16T01:47:36.431Z,15.25
2018-12-16T01:50:04.855Z,15.25
2018-12-16T01:52:32.767Z,11.57
2018-12-16T01:55:00.782Z,14.87
2018-12-16T01:57:28.520Z,14.90
2018-12-16T01:59:56.281Z,7.05
2018-12-16T02:02:24.180Z,14.63
2018-12-16T02:04:51.759Z,14.75
2018-12-16T02:07:19.553Z,15.95
2018-12-16T02:09:47.426Z,15.05
2018-12-16T02:12:16.550Z,11.68
2018-12-16T02:14:44.933Z,14.70
2018-12-16T02:17:12.786Z,10.03
2018-12-16T02:19:40.518Z,12.18
2018-12-16T02:22:08.531Z,12.55
2018-12-16T02:24:36.235Z,12.40
2018-12-16T02:27:04.382Z,8.60
2018-12-16T02:29:32.062Z,13.80
2018-12-16T02:31:59.798Z,9.28
2018-12-16T02:34:27.710Z,10.43
2018-12-16T02:36:55.375Z,11.10
2018-12-16T02:39:23.111Z,10.40
2018-12-16T02:41:51.403Z,11.73
2018-12-16T02:44:19.354Z,9.80
2018-12-16T02:46:46.939Z,10.93
2018-12-16T02:49:14.567Z,9.38
2018-12-16T02:51:42.200Z,11.22
2018-12-16T02:54:10.061Z,17.40
2018-12-16T02:56:37.828Z,16.60
2018-12-16T02:59:05.916Z,12.25
2018-12-16T03:01:33.473Z,11.78
2018-12-16T03:04:01.225Z,14.50
2018-12-16T03:06:29.106Z,11.95
2018-12-16T03:08:57.636Z,14.63
2018-12-16T03:11:25.275Z,8.55
2018-12-16T03:13:53.179Z,12.45
2018-12-16T03:16:20.971Z,13.13
2018-12-16T03:18:48.695Z,12.98
2018-12-16T03:21:16.975Z,11.12
2018-12-16T03:23:44.876Z,8.10
2018-12-16T03:26:12.749Z,8.18
2018-12-16T03:28:40.898Z,12.40
2018-12-16T03:31:08.508Z,11.45
2018-12-16T03:33:36.838Z,14.65
2018-12-16T03:36:04.902Z,15.25
2018-12-16T03:38:32.660Z,13.13
2018-12-16T03:41:00.656Z,10.50
2018-12-16T03:43:28.454Z,10.18
2018-12-16T03:45:56.085Z,12.30
2018-12-16T03:48:23.707Z,5.10
2018-12-16T03:50:51.515Z,14.70
2018-12-16T03:53:20.130Z,10.63
2018-12-16T03:55:48.176Z,9.75
2018-12-16T03:58:16.015Z,10.48
2018-12-16T04:00:43.740Z,12.60
2018-12-16T04:03:11.497Z,13.45
2018-12-16T04:05:39.380Z,15.13
2018-12-16T04:08:07.221Z,12.37
2018-12-16T04:10:35.977Z,8.58
2018-12-16T04:13:03.711Z,15.35
2018-12-16T04:15:31.575Z,16.67
2018-12-16T04:17:59.302Z,16.50
2018-12-16T04:20:27.333Z,8.80
2018-12-16T04:22:55.163Z,7.67
2018-12-16T04:25:22.940Z,14.15
2018-12-16T04:27:51.589Z,10.00
2018-12-16T04:30:20.599Z,8.08
2018-12-16T04:32:48.535Z,13.40
2018-12-16T04:35:16.253Z,10.05
2018-12-16T04:37:43.824Z,17.48
2018-12-16T04:40:12.477Z,16.80
2018-12-16T04:42:40.991Z,15.72
2018-12-16T04:45:08.923Z,13.70
2018-12-16T04:47:36.753Z,10.40
2018-12-16T04:50:05.251Z,15.80
2018-12-16T04:52:32.816Z,16.85
2018-12-16T04:55:00.766Z,19.15
2018-12-16T04:57:28.727Z,10.40
2018-12-16T04:59:56.644Z,5.22
2018-12-16T05:02:24.915Z,14.43
2018-12-16T05:04:52.605Z,18.60
2018-12-16T05:07:21.431Z,13.83
2018-12-16T05:09:50.626Z,17.42
2018-12-16T05:12:18.231Z,16.20
2018-12-16T05:14:46.264Z,19.12
2018-12-16T05:17:15.370Z,15.93
2018-12-16T05:19:43.054Z,19.62
2018-12-16T05:22:10.649Z,18.50
2018-12-16T05:24:38.887Z,12.40
2018-12-16T05:27:07.853Z,7.78
2018-12-16T05:29:35.599Z,16.05
2018-12-16T05:32:03.239Z,16.82
2018-12-16T05:34:30.792Z,7.95
2018-12-16T05:36:58.825Z,13.90
2018-12-16T05:39:27.097Z,14.53
2018-12-16T05:41:55.420Z,11.60
2018-12-16T05:44:23.306Z,16.15
2018-12-16T05:46:51.650Z,18.48
2018-12-16T05:49:25.951Z,18.65
2018-12-16T05:51:54.041Z,18.92
2018-12-16T05:54:21.888Z,16.93
2018-12-16T05:56:49.660Z,18.77
2018-12-16T05:59:17.277Z,19.20
2018-12-16T06:01:44.943Z,13.62
2018-12-16T06:04:13.007Z,19.35
2018-12-16T06:06:40.774Z,20.08
2018-12-16T06:09:08.647Z,17.77
2018-12-16T06:11:36.270Z,16.55
2018-12-16T06:14:03.976Z,16.82
2018-12-16T06:16:31.958Z,17.65
2018-12-16T06:18:59.791Z,17.05
2018-12-16T06:21:27.451Z,17.02
2018-12-16T06:23:55.684Z,17.45
2018-12-16T06:26:23.759Z,17.37
2018-12-16T06:28:51.672Z,14.07
2018-12-16T06:31:19.288Z,17.52
2018-12-16T06:33:48.300Z,17.15
2018-12-16T06:36:15.913Z,18.45
2018-12-16T06:38:43.652Z,17.95
2018-12-16T06:41:11.574Z,18.05
2018-12-16T06:43:40.646Z,17.48
2018-12-16T06:46:08.742Z,16.10
2018-12-16T06:48:36.568Z,17.75
2018-12-16T06:51:04.265Z,14.68
2018-12-16T06:53:32.008Z,17.95
2018-12-16T06:56:06.515Z,16.77
2018-12-16T06:58:30.253Z,16.95
2018-12-16T07:00:58.234Z,15.43
2018-12-16T07:03:26.254Z,15.63
2018-12-16T07:05:54.143Z,7.37
2018-12-16T07:08:21.838Z,16.90
2018-12-16T07:10:49.505Z,18.90
2018-12-16T07:13:17.725Z,15.63
2018-12-16T07:15:45.597Z,17.95
2018-12-16T07:18:14.142Z,18.55
2018-12-16T07:20:41.904Z,13.03
2018-12-16T07:23:09.865Z,16.52
2018-12-16T07:25:38.221Z,17.60
2018-12-16T07:28:05.856Z,12.78
2018-12-16T07:30:33.829Z,16.95
2018-12-16T07:33:01.858Z,16.93
2018-12-16T07:35:29.844Z,17.50
2018-12-16T07:37:58.540Z,17.90
2018-12-16T07:40:33.095Z,18.32
2018-12-16T07:43:00.974Z,18.73
2018-12-16T07:45:29.015Z,17.17
2018-12-16T07:47:56.725Z,19.20
2018-12-16T07:50:24.701Z,18.20
2018-12-16T07:52:53.773Z,15.20
2018-12-16T07:55:21.767Z,17.60
2018-12-16T07:57:49.553Z,11.83
2018-12-16T08:00:17.607Z,12.85
2018-12-16T08:02:45.444Z,16.75
2018-12-16T08:05:13.290Z,19.12
2018-12-16T08:07:42.118Z,16.97
2018-12-16T08:10:10.098Z,16.02
2018-12-16T08:12:37.801Z,16.62
2018-12-16T08:15:07.082Z,17.02
2018-12-16T08:17:34.875Z,19.50
2018-12-16T08:20:03.344Z,25.32
2018-12-16T08:22:32.472Z,23.32
2018-12-16T08:25:00.157Z,17.70
2018-12-16T08:27:27.866Z,19.30
2018-12-16T08:29:55.735Z,19.57
2018-12-16T08:32:23.430Z,20.65
2018-12-16T08:34:51.262Z,19.40
2018-12-16T08:37:19.284Z,19.65
2018-12-16T08:39:47.149Z,19.27
2018-12-16T08:42:15.116Z,20.95
2018-12-16T08:44:44.016Z,20.85
2018-12-16T08:47:13.027Z,19.92
2018-12-16T08:49:41.332Z,21.80
2018-12-16T08:52:10.130Z,19.25
2018-12-16T08:54:38.038Z,20.32
2018-12-16T08:57:05.701Z,19.57
2018-12-16T08:59:33.583Z,19.35
2018-12-16T09:02:01.434Z,18.60
2018-12-16T09:04:29.022Z,17.40
2018-12-16T09:06:57.053Z,19.12
2018-12-16T09:09:25.493Z,18.30
2018-12-16T09:11:53.794Z,19.52
2018-12-16T09:14:21.408Z,19.32
2018-12-16T09:16:49.382Z,19.77
2018-12-16T09:19:17.755Z,19.23
2018-12-16T09:21:46.095Z,19.65
2018-12-16T09:24:14.200Z,21.40
2018-12-16T09:26:41.961Z,23.15
2018-12-16T09:29:09.693Z,20.17
2018-12-16T09:31:37.466Z,21.73
2018-12-16T09:34:05.258Z,19.80
2018-12-16T09:36:33.399Z,17.75
2018-12-16T09:39:01.421Z,18.35
2018-12-16T09:41:29.328Z,19.02
2018-12-16T09:43:58.232Z,18.27
2018-12-16T09:46:26.188Z,16.55
2018-12-16T09:48:54.238Z,17.77
2018-12-16T09:51:22.862Z,18.00
2018-12-16T09:53:50.711Z,15.15
2018-12-16T09:56:18.851Z,16.48
2018-12-16T09:58:46.904Z,14.93
2018-12-16T10:01:14.877Z,17.25
2018-12-16T10:03:42.892Z,17.17
2018-12-16T10:06:11.639Z,14.98
2018-12-16T10:08:40.096Z,14.35
2018-12-16T10:11:07.913Z,17.57
2018-12-16T10:13:36.547Z,15.95
2018-12-16T10:16:04.588Z,17.85
2018-12-16T10:18:32.536Z,17.10
2018-12-16T10:21:00.323Z,17.95
2018-12-16T10:23:28.247Z,17.30
2018-12-16T10:25:56.003Z,18.00
2018-12-16T10:28:31.193Z,17.27
2018-12-16T10:30:59.479Z,17.50
2018-12-16T10:33:27.431Z,19.42
2018-12-16T10:35:56.683Z,19.95
2018-12-16T10:38:24.711Z,20.20
2018-12-16T10:40:52.644Z,20.25
2018-12-16T10:43:24.779Z,20.88
2018-12-16T10:45:52.701Z,18.92
2018-12-16T10:48:20.766Z,21.27
2018-12-16T10:50:48.720Z,25.15
2018-12-16T10:53:16.380Z,19.05
2018-12-16T10:55:44.559Z,21.30
2018-12-16T10:58:12.209Z,21.40
2018-12-16T11:00:46.296Z,19.87
2018-12-16T11:03:15.271Z,20.88
2018-12-16T11:05:43.628Z,22.27
2018-12-16T11:08:11.563Z,21.60
2018-12-16T11:10:39.789Z,19.50
2018-12-16T11:13:08.258Z,22.13
2018-12-16T11:15:36.388Z,23.00
2018-12-16T11:18:04.479Z,21.30
2018-12-16T11:20:32.345Z,22.55
2018-12-16T11:23:00.273Z,24.72
2018-12-16T11:25:28.490Z,23.70
2018-12-16T11:27:56.746Z,23.90
2018-12-16T11:30:24.585Z,24.87
2018-12-16T11:32:52.323Z,25.12
2018-12-16T11:35:20.429Z,23.10
2018-12-16T11:37:48.351Z,22.75
2018-12-16T11:40:16.506Z,22.75
2018-12-16T11:42:45.424Z,23.52
2018-12-16T12:34:17.866Z,21.35
2018-12-16T12:36:45.581Z,34.85
2018-12-16T12:59:34.750Z,23.50
2018-12-16T13:02:03.721Z,25.48
2018-12-16T13:04:32.186Z,30.05
2018-12-16T13:07:00.330Z,23.27
2018-12-16T13:09:27.934Z,22.25
2018-12-16T13:11:57.155Z,22.50
2018-12-16T13:14:25.534Z,24.32
2018-12-16T13:16:53.404Z,22.95
2018-12-16T13:19:22.360Z,27.00
2018-12-16T13:21:51.553Z,24.40
2018-12-16T13:24:20.351Z,25.40
2018-12-16T13:26:49.433Z,28.23
2018-12-16T13:29:17.225Z,26.52
2018-12-16T13:31:45.960Z,27.87
2018-12-16T13:34:14.748Z,25.00
2018-12-16T13:36:42.664Z,25.62
2018-12-16T13:39:10.608Z,24.67
2018-12-16T13:41:38.501Z,23.52
2018-12-16T13:44:06.312Z,22.87
2018-12-16T13:46:35.326Z,23.60
2018-12-16T13:49:03.334Z,25.60
2018-12-16T13:51:31.058Z,28.60
2018-12-16T13:54:00.197Z,27.80
2018-12-16T13:56:28.270Z,25.97
2018-12-16T13:58:56.731Z,24.95
2018-12-16T14:01:24.880Z,22.15
2018-12-16T14:03:53.197Z,22.32
2018-12-16T14:06:21.556Z,21.05
2018-12-16T14:08:49.701Z,21.70
2018-12-16T14:11:18.846Z,22.25
2018-12-16T14:13:48.012Z,21.80
2018-12-16T14:16:16.135Z,24.98
2018-12-16T14:18:44.057Z,22.87
2018-12-16T14:21:12.506Z,22.58
2018-12-16T14:23:40.593Z,22.90
2018-12-16T14:26:08.391Z,21.55
2018-12-16T14:28:37.490Z,22.75
2018-12-16T14:31:05.335Z,24.50
2018-12-16T14:33:33.131Z,24.50
2018-12-16T14:36:01.887Z,24.77
2018-12-16T14:38:30.080Z,25.05
2018-12-16T14:40:59.453Z,25.43
2018-12-16T14:43:28.881Z,24.57
2018-12-16T14:45:56.916Z,24.02
2018-12-16T14:48:26.109Z,25.90
2018-12-16T14:50:53.968Z,25.57
2018-12-16T14:53:23.092Z,27.17
2018-12-16T14:55:55.119Z,27.60
2018-12-16T14:58:21.719Z,28.30
2018-12-16T15:00:50.683Z,29.72
2018-12-16T15:03:18.493Z,27.00
2018-12-16T15:05:46.293Z,31.12
2018-12-16T15:08:14.084Z,29.55
2018-12-16T15:10:42.432Z,30.88
2018-12-16T15:13:10.204Z,29.87
2018-12-16T15:15:38.011Z,29.02
2018-12-16T15:18:06.179Z,29.15
2018-12-16T15:20:33.931Z,28.98
2018-12-16T15:23:02.255Z,27.87
2018-12-16T15:25:29.997Z,27.10
2018-12-16T15:27:59.138Z,26.23
2018-12-16T15:30:26.818Z,27.82
2018-12-16T15:32:54.730Z,25.50
2018-12-16T15:35:23.924Z,27.10
2018-12-16T15:37:51.852Z,25.35
2018-12-16T15:40:19.763Z,26.97
2018-12-16T15:42:48.097Z,22.80
2018-12-16T15:45:15.854Z,24.77
2018-12-16T15:47:43.924Z,24.98
2018-12-16T15:50:12.411Z,23.87
2018-12-16T15:52:41.771Z,24.00
2018-12-16T15:55:10.400Z,28.30
2018-12-16T15:57:39.032Z,28.47
2018-12-16T16:00:07.224Z,26.15
2018-12-16T16:02:35.096Z,32.40
2018-12-16T16:05:03.247Z,27.52
2018-12-16T16:07:31.793Z,28.77
2018-12-16T16:09:59.812Z,24.67
2018-12-16T16:12:28.065Z,23.70
2018-12-16T16:14:56.271Z,24.02
2018-12-16T16:17:28.128Z,24.87
2018-12-16T16:19:56.052Z,25.72
2018-12-16T16:22:24.353Z,25.62
2018-12-16T16:24:52.276Z,30.02
2018-12-16T16:27:20.082Z,28.73
2018-12-16T16:29:48.055Z,31.30
2018-12-16T16:32:15.918Z,31.62
2018-12-16T16:34:43.781Z,29.92
2018-12-16T16:37:12.365Z,30.77
2018-12-16T16:39:40.192Z,32.95
2018-12-16T16:42:08.530Z,30.20
2018-12-16T16:44:36.870Z,30.77
2018-12-16T16:47:04.940Z,28.65
2018-12-16T16:49:32.923Z,31.02
2018-12-16T16:52:01.663Z,29.65
2018-12-16T16:54:29.438Z,28.60
2018-12-16T16:56:57.302Z,29.87
2018-12-16T16:59:26.149Z,28.47
2018-12-16T17:01:54.206Z,30.52
2018-12-16T17:04:22.572Z,30.35
2018-12-16T17:06:50.287Z,34.23
2018-12-16T17:09:18.338Z,29.92
2018-12-16T17:11:46.197Z,28.50
2018-12-16T17:14:14.631Z,28.77
2018-12-16T17:16:42.886Z,30.23
2018-12-16T17:19:11.803Z,33.05
2018-12-16T17:21:40.499Z,32.05
2018-12-16T17:24:09.080Z,32.08
2018-12-16T17:26:36.969Z,32.53
2018-12-16T17:29:05.327Z,30.97
2018-12-16T17:31:33.134Z,32.25
2018-12-16T17:34:00.805Z,30.40
2018-12-16T17:36:28.628Z,29.90
2018-12-16T17:38:56.589Z,32.28
2018-12-16T17:41:24.423Z,29.10
2018-12-16T17:43:52.330Z,30.27
2018-12-16T17:46:20.686Z,30.23
2018-12-16T17:48:49.594Z,30.40
2018-12-16T17:51:17.445Z,28.00
2018-12-16T17:53:45.348Z,25.80
2018-12-16T17:56:13.397Z,26.27
2018-12-16T17:58:41.253Z,24.72
2018-12-16T18:01:09.021Z,23.65
2018-12-16T18:03:37.988Z,20.20
2018-12-16T18:06:06.243Z,23.25
2018-12-16T18:08:34.817Z,19.80
2018-12-16T18:11:02.732Z,19.82
2018-12-16T18:13:31.121Z,22.25
2018-12-16T18:15:59.208Z,18.15
2018-12-16T18:18:27.735Z,23.22
2018-12-16T18:20:55.525Z,22.25
2018-12-16T18:24:42.819Z,18.65
2018-12-16T18:27:10.853Z,20.35
2018-12-16T18:29:39.222Z,21.10
2018-12-16T18:32:07.570Z,23.90
2018-12-16T18:34:35.288Z,31.07
2018-12-16T18:37:03.131Z,21.48
2018-12-16T18:39:31.198Z,20.48
2018-12-16T18:41:59.249Z,21.80
2018-12-16T18:44:26.992Z,19.23
2018-12-16T18:46:56.002Z,17.92
2018-12-16T18:49:23.847Z,16.75
2018-12-16T18:51:52.575Z,16.90
2018-12-16T18:54:20.322Z,16.40
2018-12-16T18:56:51.190Z,18.77
2018-12-16T18:59:18.048Z,18.45
2018-12-16T19:01:46.508Z,17.98
2018-12-16T19:04:14.343Z,18.70
2018-12-16T19:06:42.115Z,20.40
2018-12-16T19:09:11.312Z,23.22
2018-12-16T19:11:39.268Z,22.95
2018-12-16T19:14:08.444Z,20.88
2018-12-16T19:16:36.475Z,20.85
2018-12-16T19:19:04.750Z,18.27
2018-12-16T19:21:32.755Z,19.07
2018-12-16T19:24:01.485Z,19.15
2018-12-16T19:26:29.259Z,18.52
2018-12-16T19:28:57.033Z,20.12
2018-12-16T19:31:25.008Z,16.17
2018-12-16T19:33:52.755Z,12.93
2018-12-16T19:36:20.858Z,15.23
2018-12-16T19:38:48.770Z,15.70
2018-12-16T19:41:16.747Z,17.32
2018-12-16T19:43:45.440Z,15.95
2018-12-16T19:46:13.691Z,16.50
2018-12-16T19:48:42.798Z,17.48
2018-12-16T19:51:11.351Z,14.65
2018-12-16T19:53:39.541Z,16.00
2018-12-16T19:56:07.761Z,14.53
2018-12-16T19:58:36.347Z,14.87
2018-12-16T20:01:04.792Z,13.62
2018-12-16T20:03:33.194Z,15.95
2018-12-16T20:06:06.665Z,22.05
2018-12-16T20:08:34.726Z,35.48
2018-12-16T20:11:03.680Z,25.60
2018-12-16T20:13:32.626Z,23.62
2018-12-16T20:16:01.578Z,17.30
2018-12-16T20:18:29.560Z,19.30
2018-12-16T20:20:58.324Z,20.55
2018-12-16T20:23:26.736Z,21.23
2018-12-16T20:25:54.607Z,20.90
2018-12-16T20:28:22.870Z,19.35
2018-12-16T20:30:51.044Z,19.00
2018-12-16T20:33:20.030Z,16.70
2018-12-16T20:35:48.517Z,16.85
2018-12-16T20:38:17.002Z,18.50
2018-12-16T20:40:44.998Z,18.87
2018-12-16T20:43:14.051Z,17.23
2018-12-16T20:45:41.914Z,19.65
2018-12-16T20:48:10.013Z,19.23
2018-12-16T20:50:38.913Z,21.42
2018-12-16T20:53:07.199Z,18.40
2018-12-16T20:55:35.969Z,20.65
2018-12-16T20:58:04.070Z,19.00
2018-12-16T21:00:33.004Z,21.93
2018-12-16T21:03:08.185Z,20.40
2018-12-16T21:05:36.679Z,32.93
2018-12-16T21:08:05.471Z,24.15
2018-12-16T21:10:33.793Z,19.67
2018-12-16T21:13:08.034Z,20.55
2018-12-16T21:15:41.621Z,20.88
2018-12-16T21:18:14.969Z,19.23
2018-12-16T21:20:42.632Z,25.43
2018-12-16T21:23:10.452Z,22.07
2018-12-16T21:25:38.145Z,20.80
2018-12-16T21:28:06.026Z,22.25
2018-12-16T21:30:34.939Z,20.25
2018-12-16T21:33:03.219Z,19.05
2018-12-16T21:35:31.111Z,19.23
2018-12-16T21:37:59.828Z,17.25
2018-12-16T21:40:28.371Z,18.00
2018-12-16T21:42:56.247Z,14.20
2018-12-16T21:45:24.252Z,16.00
2018-12-16T21:47:52.889Z,15.28
2018-12-16T21:50:20.576Z,15.32
2018-12-16T21:52:48.929Z,16.05
2018-12-16T21:55:17.730Z,14.80
2018-12-16T21:57:45.531Z,15.55
2018-12-16T22:00:13.276Z,15.58
2018-12-16T22:02:42.054Z,13.43
2018-12-16T22:05:11.387Z,13.80
2018-12-16T22:07:40.492Z,15.32
2018-12-16T22:10:08.828Z,17.35
2018-12-16T22:12:36.526Z,20.25
2018-12-16T22:15:05.119Z,17.05
2018-12-16T22:17:33.295Z,17.73
2018-12-16T22:20:00.935Z,17.02
2018-12-16T22:22:29.901Z,18.05
2018-12-16T22:24:57.692Z,20.05
2018-12-16T22:27:26.201Z,15.90
2018-12-16T22:29:54.347Z,16.65
2018-12-16T22:32:22.048Z,16.27
2018-12-16T22:34:49.973Z,15.80
2018-12-16T22:37:18.324Z,17.75
2018-12-16T22:39:46.554Z,16.75
2018-12-16T22:42:14.463Z,15.20
2018-12-16T22:44:42.290Z,15.93
2018-12-16T22:47:10.200Z,15.08
2018-12-16T22:49:37.911Z,15.78
2018-12-16T22:52:05.839Z,19.85
2018-12-16T22:54:33.821Z,17.98
2018-12-16T22:57:01.542Z,17.60
2018-12-16T22:59:29.566Z,18.75
2018-12-16T23:01:57.930Z,17.30
2018-12-16T23:04:25.600Z,16.55
2018-12-16T23:06:53.313Z,15.10
2018-12-16T23:09:21.563Z,16.15
2018-12-16T23:11:49.247Z,14.93
2018-12-16T23:14:17.215Z,13.85
2018-12-16T23:16:45.476Z,13.35
2018-12-16T23:19:13.281Z,14.73
2018-12-16T23:21:41.455Z,15.30
2018-12-16T23:24:09.663Z,13.32
2018-12-16T23:26:37.396Z,15.85
2018-12-16T23:29:05.067Z,16.15
2018-12-16T23:31:33.751Z,21.57
2018-12-16T23:34:01.642Z,18.65
2018-12-16T23:36:29.346Z,20.85
2018-12-16T23:38:57.759Z,20.70
2018-12-16T23:41:26.614Z,19.40
2018-12-16T23:43:54.298Z,21.33
2018-12-16T23:46:21.981Z,18.98
2018-12-16T23:48:50.427Z,18.62
2018-12-16T23:51:18.271Z,17.52
2018-12-16T23:53:46.366Z,19.02
2018-12-16T23:56:15.193Z,18.20
2018-12-16T23:58:42.898Z,12.95
